Weather at Bob Hope Airport

Public forecast

Using degrees Fahrenheit for public forecast. Weather courtesy of forecast.io.

Current aviation weather report (METAR) for Bob Hope Airport

Report is more than 6 hours old.

2024/06/24 05:53 (retrieved 1 day ago)

KBUR 240553Z 12007KT 10SM CLR 23/14 A2992 RMK AO2 SLP115 T02330139 10333 20228 51019

Aviation forecast (TAF) for Bob Hope Airport

Forecast is more than 12 hours old.

2024/06/24 06:31 (retrieved 1 day ago)

TAF KBUR 250531Z 2506/2606 13006KT P6SM SCT150 FM251000 VRB03KT P6SM SCT150 FM251600 13006KT P6SM SCT150 FM252000 17010KT P6SM SCT150 FM260300 13006KT P6SM SCT150